Time;durP1;ratioP1;P1;durP2;ratioP2;P2;SDS_P1;SDS_P2;PMS_P1;PMS_P2;Temp;Humidity;BMP_temperature;BMP_pressure;BME280_temperature;BME280_humidity;BME280_pressure;Samples;Min_cycle;Max_cycle;Signal;HPM_P1;HPM_P2
2022/03/12 00:01:08;;;;;;;14.20;9.20;;;;;;;4.99;44.28;96769.63;5111354;28;20388;-63
2022/03/12 00:03:33;;;;;;;13.90;9.32;;;;;;;4.84;44.15;96772.34;5110983;28;20400;-63
2022/03/12 00:06:00;;;;;;;12.70;8.83;;;;;;;4.88;44.40;96770.16;5111805;28;20396;-63
2022/03/12 00:08:40;;;;;;;12.05;9.00;;;;;;;5.04;44.11;96780.22;5111825;28;20475;-63
2022/03/12 00:11:07;;;;;;;13.32;9.00;;;;;;;5.00;44.59;96776.41;5111521;28;20404;-66
2022/03/12 00:13:32;;;;;;;12.55;8.90;;;;;;;4.98;44.51;96786.19;5111767;28;20861;-63
2022/03/12 00:15:58;;;;;;;13.30;8.83;;;;;;;4.99;44.13;96786.00;5112174;28;20399;-63
2022/03/12 00:18:30;;;;;;;10.43;8.60;;;;;;;5.06;44.50;96787.84;5111873;28;20376;-65
2022/03/12 00:20:56;;;;;;;15.95;8.77;;;;;;;4.88;44.58;96783.13;5111918;28;20433;-63
2022/03/12 00:23:22;;;;;;;11.75;8.27;;;;;;;5.09;44.60;96784.84;5111855;28;20472;-64
2022/03/12 00:25:48;;;;;;;13.20;8.87;;;;;;;5.08;44.24;96785.81;5111367;28;20433;-63
2022/03/12 00:28:18;;;;;;;13.20;8.68;;;;;;;5.20;43.70;96795.50;5111726;28;20396;-63
2022/03/12 00:30:45;;;;;;;10.93;8.65;;;;;;;5.17;43.71;96801.09;5111327;28;20725;-63
2022/03/12 00:33:11;;;;;;;11.13;8.27;;;;;;;4.81;44.95;96796.06;5111462;28;20393;-64
2022/03/12 00:35:37;;;;;;;12.02;8.48;;;;;;;4.72;45.20;96806.78;5093121;28;20465;-63
2022/03/12 00:38:03;;;;;;;12.57;8.10;;;;;;;4.52;45.58;96811.81;5111546;28;20380;-64
2022/03/12 00:40:29;;;;;;;11.02;7.90;;;;;;;4.70;45.02;96806.16;5111350;28;20862;-64
2022/03/12 00:42:55;;;;;;;10.55;8.40;;;;;;;4.70;45.04;96809.56;5111493;28;20423;-63
2022/03/12 00:45:20;;;;;;;11.98;8.90;;;;;;;4.71;45.04;96803.41;5111305;28;20392;-63
2022/03/12 00:47:48;;;;;;;11.83;8.53;;;;;;;5.18;43.99;96799.28;5111110;28;20391;-64
2022/03/12 00:50:13;;;;;;;10.85;8.68;;;;;;;5.22;43.86;96801.31;5110867;28;20384;-63
2022/03/12 00:52:38;;;;;;;11.88;8.48;;;;;;;5.00;44.12;96803.19;5093310;28;20415;-64
2022/03/12 00:55:04;;;;;;;12.07;8.47;;;;;;;4.81;44.78;96803.84;5111263;28;20392;-64
2022/03/12 00:57:30;;;;;;;11.98;8.32;;;;;;;4.80;44.95;96799.66;5111585;28;20422;-64
2022/03/12 00:59:55;;;;;;;14.90;8.80;;;;;;;5.10;43.53;96804.63;5110553;28;20380;-64
2022/03/12 01:02:21;;;;;;;13.53;8.13;;;;;;;4.99;43.84;96803.38;5111106;28;20380;-63
2022/03/12 01:04:46;;;;;;;13.40;8.10;;;;;;;4.96;43.86;96804.53;5095789;28;20821;-64
2022/03/12 01:07:12;;;;;;;12.15;8.20;;;;;;;4.84;44.31;96800.09;5114990;28;20389;-64
2022/03/12 01:09:38;;;;;;;10.93;8.32;;;;;;;4.81;44.44;96801.25;5077226;28;20401;-64
2022/03/12 01:12:05;;;;;;;11.70;8.47;;;;;;;4.84;44.02;96792.31;5115325;28;20404;-64
2022/03/12 01:14:31;;;;;;;12.82;8.15;;;;;;;4.76;44.58;96787.25;5115221;28;20861;-64
2022/03/12 01:17:00;;;;;;;11.53;8.37;;;;;;;4.68;44.60;96790.00;5115447;28;20392;-64
2022/03/12 01:19:26;;;;;;;11.85;8.20;;;;;;;4.72;44.51;96788.63;5114932;28;20894;-63
2022/03/12 01:21:53;;;;;;;11.23;8.25;;;;;;;4.73;44.63;96777.25;5114632;28;20412;-64
2022/03/12 01:24:19;;;;;;;11.02;8.13;;;;;;;4.66;44.38;96784.19;5115125;28;20434;-64
2022/03/12 01:26:44;;;;;;;12.65;8.38;;;;;;;4.54;44.51;96778.72;5115053;28;20392;-65
2022/03/12 01:29:09;;;;;;;10.40;7.80;;;;;;;4.48;44.12;96775.06;5114737;28;20399;-64
2022/03/12 01:31:35;;;;;;;12.33;8.23;;;;;;;4.42;44.63;96783.59;5114521;28;20400;-64
2022/03/12 01:34:02;;;;;;;13.85;7.95;;;;;;;4.33;45.48;96782.16;5113798;28;20388;-64
2022/03/12 01:36:27;;;;;;;11.18;8.35;;;;;;;4.40;44.52;96775.19;5114982;28;20865;-63
2022/03/12 01:38:54;;;;;;;11.50;8.10;;;;;;;4.54;44.37;96781.31;5114741;28;20403;-64
2022/03/12 01:41:22;;;;;;;10.57;7.68;;;;;;;4.40;45.14;96788.16;5114352;28;20888;-69
2022/03/12 01:43:49;;;;;;;11.27;7.70;;;;;;;4.33;45.29;96789.13;5096151;28;20492;-64
2022/03/12 01:46:16;;;;;;;12.98;8.20;;;;;;;4.34;44.80;96786.34;5096439;28;20396;-63
2022/03/12 01:48:46;;;;;;;11.35;8.05;;;;;;;4.28;45.19;96791.47;5114209;28;20737;-64
2022/03/12 01:51:12;;;;;;;11.05;7.95;;;;;;;4.43;45.12;96789.59;5114554;28;20452;-64
2022/03/12 01:53:38;;;;;;;11.32;7.75;;;;;;;4.47;44.80;96791.63;5113914;28;20928;-64
2022/03/12 01:56:03;;;;;;;10.25;7.95;;;;;;;4.30;44.89;96792.88;5114339;28;20388;-64
2022/03/12 01:58:29;;;;;;;10.93;7.90;;;;;;;4.29;45.61;96788.69;5096083;28;20493;-64
2022/03/12 02:00:57;;;;;;;11.77;8.03;;;;;;;4.40;45.18;96784.81;5113453;28;20390;-64
2022/03/12 02:03:26;;;;;;;11.00;7.80;;;;;;;4.38;45.65;96777.19;5114138;28;20907;-64
2022/03/12 02:05:52;;;;;;;9.80;7.93;;;;;;;4.40;45.36;96785.56;5114373;28;20388;-64
2022/03/12 02:08:18;;;;;;;11.02;7.78;;;;;;;4.39;44.48;96775.41;5114155;28;20488;-64
2022/03/12 02:10:45;;;;;;;9.13;7.45;;;;;;;4.29;45.14;96778.31;5095702;28;20388;-64
2022/03/12 02:13:11;;;;;;;12.02;8.18;;;;;;;4.21;44.79;96780.25;5113753;28;20397;-64
2022/03/12 02:15:37;;;;;;;11.70;7.90;;;;;;;3.98;45.15;96778.63;5112517;28;20745;-64
2022/03/12 02:18:03;;;;;;;11.70;8.02;;;;;;;4.23;44.98;96776.47;5114027;28;20392;-64
2022/03/12 02:20:29;;;;;;;12.07;7.97;;;;;;;4.19;44.97;96777.81;5113780;28;20392;-64
2022/03/12 02:22:55;;;;;;;14.55;7.70;;;;;;;4.34;44.87;96788.13;5095124;28;20466;-64
2022/03/12 02:25:32;;;;;;;12.52;8.50;;;;;;;4.23;45.50;96778.28;5113545;28;20821;-65
2022/03/12 02:27:59;;;;;;;11.02;7.72;;;;;;;4.32;45.56;96775.34;5113810;28;20398;-64
2022/03/12 02:30:39;;;;;;;12.15;8.10;;;;;;;4.49;44.48;96779.28;5113707;28;20745;-64
2022/03/12 02:33:05;;;;;;;11.30;8.30;;;;;;;4.56;44.82;96772.34;5113400;28;20574;-64
2022/03/12 02:35:34;;;;;;;13.57;8.13;;;;;;;4.39;45.32;96780.59;5094822;28;20567;-64
2022/03/12 02:38:01;;;;;;;11.55;7.90;;;;;;;4.15;46.63;96786.97;5078720;28;20420;-64
2022/03/12 02:40:27;;;;;;;11.27;7.40;;;;;;;4.16;45.88;96791.19;5113371;28;20420;-64
2022/03/12 02:42:55;;;;;;;11.13;8.07;;;;;;;4.26;45.75;96796.03;5113304;28;20439;-64
2022/03/12 02:45:23;;;;;;;13.60;8.35;;;;;;;4.44;45.08;96796.41;5113376;28;20399;-64
2022/03/12 02:47:49;;;;;;;12.20;7.87;;;;;;;4.41;45.89;96800.16;5113160;28;20469;-64
2022/03/12 02:50:14;;;;;;;11.98;8.25;;;;;;;4.39;45.28;96804.75;5112800;28;20857;-64
2022/03/12 02:52:44;;;;;;;10.97;7.93;;;;;;;4.16;45.71;96791.19;5112772;28;20465;-64
2022/03/12 02:55:13;;;;;;;9.55;7.65;;;;;;;4.35;46.03;96794.91;5113212;28;20385;-63
2022/03/12 02:57:40;;;;;;;12.27;8.20;;;;;;;4.22;46.00;96793.03;5112712;28;20404;-64
2022/03/12 03:00:08;;;;;;;13.45;7.78;;;;;;;4.07;46.44;96802.66;5112440;28;20521;-64
2022/03/12 03:02:45;;;;;;;10.07;7.68;;;;;;;4.10;46.76;96799.69;5112923;28;20474;-64
2022/03/12 03:05:16;;;;;;;11.18;7.60;;;;;;;3.97;46.64;96802.16;5112892;28;20734;-64
2022/03/12 03:07:41;;;;;;;12.27;7.53;;;;;;;4.29;45.78;96806.06;5112407;28;20857;-64
2022/03/12 03:10:10;;;;;;;11.13;7.65;;;;;;;4.22;45.95;96811.19;5112643;28;20518;-64
2022/03/12 03:12:36;;;;;;;10.05;7.80;;;;;;;4.06;45.46;96809.66;5112656;28;20396;-64
2022/03/12 03:15:02;;;;;;;10.90;7.82;;;;;;;3.99;46.15;96808.78;5112759;28;20391;-64
2022/03/12 03:17:28;;;;;;;10.82;7.45;;;;;;;3.78;46.82;96816.53;5112403;28;20388;-65
2022/03/12 03:19:54;;;;;;;13.32;7.85;;;;;;;4.01;45.82;96817.16;5112843;28;20389;-64
2022/03/12 03:22:19;;;;;;;9.97;7.80;;;;;;;3.90;46.26;96824.63;5094608;28;20399;-65
2022/03/12 03:24:44;;;;;;;11.00;7.68;;;;;;;3.96;45.88;96827.28;5096179;28;20419;-64
2022/03/12 03:27:10;;;;;;;10.73;7.57;;;;;;;3.99;46.45;96839.88;5112497;28;20902;-64
2022/03/12 03:29:36;;;;;;;10.13;7.63;;;;;;;3.91;46.70;96842.59;5112901;28;20422;-64
2022/03/12 03:32:02;;;;;;;11.88;7.63;;;;;;;3.91;46.09;96834.81;5112360;28;20467;-64
2022/03/12 03:34:31;;;;;;;11.18;7.53;;;;;;;3.93;46.82;96838.03;5112431;28;20849;-64
2022/03/12 03:36:57;;;;;;;10.73;7.43;;;;;;;3.90;46.81;96838.38;5112496;28;20457;-64
2022/03/12 03:39:23;;;;;;;12.07;7.53;;;;;;;3.99;46.21;96839.88;5112385;28;20494;-64
2022/03/12 03:41:49;;;;;;;11.47;7.80;;;;;;;4.02;45.93;96836.91;5112696;28;20391;-64
2022/03/12 03:44:21;;;;;;;11.43;7.13;;;;;;;3.98;46.15;96840.88;5094067;28;20495;-63
2022/03/12 03:46:46;;;;;;;10.38;7.65;;;;;;;4.05;45.86;96846.13;5096015;28;20396;-67
2022/03/12 03:49:12;;;;;;;12.93;7.47;;;;;;;4.03;46.37;96851.50;5112645;28;20407;-64
2022/03/12 03:51:42;;;;;;;10.65;7.30;;;;;;;3.97;45.84;96841.03;5112353;28;20380;-64
2022/03/12 03:54:09;;;;;;;11.70;7.90;;;;;;;3.80;46.03;96840.47;5112056;28;20464;-64
2022/03/12 03:56:37;;;;;;;9.60;7.13;;;;;;;3.70;46.26;96840.75;5111296;28;20384;-64
2022/03/12 03:59:04;;;;;;;11.00;7.47;;;;;;;3.66;46.64;96844.72;5094077;28;20445;-64
2022/03/12 04:01:29;;;;;;;9.80;7.70;;;;;;;3.64;46.97;96844.06;5111628;28;20472;-64
2022/03/12 04:03:54;;;;;;;12.17;7.70;;;;;;;3.80;46.80;96850.03;5112080;28;20491;-64
2022/03/12 04:06:22;;;;;;;9.75;7.13;;;;;;;3.71;46.67;96846.75;5111882;28;20397;-64
2022/03/12 04:08:48;;;;;;;13.00;7.68;;;;;;;3.31;47.32;96848.03;5111486;28;20809;-64
2022/03/12 04:11:22;;;;;;;10.35;7.07;;;;;;;3.63;47.11;96854.63;5111972;28;20396;-64
2022/03/12 04:13:49;;;;;;;9.40;7.07;;;;;;;3.52;46.50;96855.88;5112025;28;20520;-64
2022/03/12 04:16:17;;;;;;;10.03;7.10;;;;;;;3.65;46.72;96848.28;5112213;28;20477;-64
2022/03/12 04:18:46;;;;;;;10.77;7.13;;;;;;;3.48;46.95;96852.06;5111170;28;20384;-65
2022/03/12 04:21:13;;;;;;;9.80;7.57;;;;;;;3.64;46.93;96851.03;5111710;28;20388;-64
2022/03/12 04:23:39;;;;;;;10.00;7.00;;;;;;;3.76;45.71;96852.19;5111802;28;20757;-63
2022/03/12 04:26:05;;;;;;;9.52;7.35;;;;;;;3.46;46.64;96850.63;5111631;28;20467;-63
2022/03/12 04:28:32;;;;;;;9.07;7.23;;;;;;;3.57;46.31;96845.78;5111325;28;20906;-65
2022/03/12 04:31:02;;;;;;;8.50;6.75;;;;;;;3.63;45.97;96849.44;5111532;28;20381;-64
2022/03/12 04:33:29;;;;;;;9.35;7.45;;;;;;;3.64;46.09;96848.44;5111093;28;20397;-65
2022/03/12 04:35:55;;;;;;;12.90;7.40;;;;;;;3.47;46.67;96847.03;5093476;28;20819;-64
2022/03/12 04:38:20;;;;;;;10.80;7.68;;;;;;;3.22;47.08;96849.94;5111788;28;20392;-64
2022/03/12 04:40:47;;;;;;;11.27;7.30;;;;;;;3.51;46.57;96850.91;5114897;28;20837;-64
2022/03/12 04:43:13;;;;;;;11.23;7.60;;;;;;;3.30;46.66;96857.59;5114437;28;20539;-64
2022/03/12 04:45:41;;;;;;;10.48;7.57;;;;;;;3.29;46.73;96857.78;5115774;28;20384;-64
2022/03/12 04:48:07;;;;;;;10.50;7.38;;;;;;;3.37;47.24;96860.28;5114845;28;20392;-64
2022/03/12 04:50:32;;;;;;;10.05;7.68;;;;;;;3.48;46.79;96862.41;5115266;28;20384;-64
2022/03/12 04:52:59;;;;;;;9.57;7.25;;;;;;;3.58;45.81;96868.13;5115553;28;20384;-64
2022/03/12 04:55:28;;;;;;;9.52;7.10;;;;;;;3.57;46.42;96865.69;5115836;28;20883;-64
2022/03/12 04:57:54;;;;;;;9.30;7.30;;;;;;;3.56;46.34;96871.91;5115493;28;20396;-64
2022/03/12 05:00:27;;;;;;;10.98;7.47;;;;;;;3.51;46.06;96871.63;5114748;28;20396;-64
2022/03/12 05:02:55;;;;;;;10.93;7.23;;;;;;;3.52;46.02;96878.41;5115543;28;20949;-64
2022/03/12 05:05:21;;;;;;;10.63;6.85;;;;;;;3.34;46.84;96879.56;5115266;28;20744;-63
2022/03/12 05:07:48;;;;;;;10.73;7.20;;;;;;;3.63;46.34;96883.13;5115431;28;20393;-63
2022/03/12 05:10:18;;;;;;;8.50;6.97;;;;;;;3.40;45.93;96883.22;5115620;28;20430;-64
2022/03/12 05:12:48;;;;;;;9.38;7.50;;;;;;;3.51;46.51;96882.78;5115197;28;20485;-64
2022/03/12 05:15:14;;;;;;;10.37;7.47;;;;;;;3.39;46.62;96886.81;5115223;28;20415;-64
2022/03/12 05:17:47;;;;;;;9.23;7.00;;;;;;;3.57;45.94;96886.44;5115374;28;20861;-64
2022/03/12 05:20:19;;;;;;;9.82;7.38;;;;;;;3.47;46.54;96897.06;5115521;28;20388;-64
2022/03/12 05:22:45;;;;;;;11.18;7.30;;;;;;;3.59;46.30;96908.59;5115022;28;20429;-64
2022/03/12 05:25:11;;;;;;;10.20;7.22;;;;;;;3.58;46.51;96908.78;5115124;28;20392;-64
2022/03/12 05:27:36;;;;;;;8.95;6.97;;;;;;;3.65;45.49;96910.47;5115192;28;20388;-64
2022/03/12 05:30:04;;;;;;;9.20;6.87;;;;;;;3.70;46.36;96913.34;5114360;28;20503;-64
2022/03/12 05:32:29;;;;;;;9.65;7.45;;;;;;;3.68;45.66;96907.50;5115130;28;20434;-65
2022/03/12 05:34:54;;;;;;;8.60;7.10;;;;;;;3.56;46.33;96915.94;5089638;28;20396;-64
2022/03/12 05:37:20;;;;;;;9.93;7.20;;;;;;;3.87;45.63;96923.50;5114624;28;20868;-65
2022/03/12 05:39:49;;;;;;;9.93;6.60;;;;;;;3.52;46.14;96912.88;5114953;28;20412;-67
2022/03/12 05:42:17;;;;;;;11.50;7.50;;;;;;;3.71;45.78;96927.09;5114546;28;20388;-65
2022/03/12 05:44:43;;;;;;;9.32;6.95;;;;;;;3.61;45.91;96929.97;5114116;28;20738;-64
2022/03/12 05:47:09;;;;;;;9.52;7.15;;;;;;;3.54;45.15;96930.84;5114992;28;20400;-64
2022/03/12 05:49:35;;;;;;;9.65;7.10;;;;;;;3.68;45.85;96933.44;5114411;28;20426;-64
2022/03/12 05:52:00;;;;;;;9.33;6.87;;;;;;;3.36;45.90;96931.19;5114184;28;20390;-64
2022/03/12 05:54:26;;;;;;;9.97;7.37;;;;;;;3.34;46.20;96926.19;5114244;28;20392;-64
2022/03/12 05:56:51;;;;;;;12.07;7.33;;;;;;;3.33;46.35;96926.38;5114087;28;20395;-64
2022/03/12 05:59:18;;;;;;;9.77;7.17;;;;;;;3.53;46.66;96932.63;5095703;28;20449;-64
2022/03/12 06:01:43;;;;;;;8.52;6.88;;;;;;;3.43;46.58;96932.09;5113758;28;20391;-64
2022/03/12 06:04:10;;;;;;;10.50;7.10;;;;;;;3.60;45.89;96935.31;5114541;28;20408;-64
2022/03/12 06:06:35;;;;;;;10.83;6.90;;;;;;;3.46;46.69;96933.53;5114358;28;20761;-64
2022/03/12 06:09:07;;;;;;;11.20;7.03;;;;;;;3.52;47.48;96938.78;5114292;28;20384;-65
2022/03/12 06:11:34;;;;;;;14.82;7.35;;;;;;;3.63;45.93;96940.94;5113904;28;20428;-64
2022/03/12 06:14:00;;;;;;;9.70;7.25;;;;;;;3.69;45.85;96942.00;5113873;28;20400;-64
2022/03/12 06:16:27;;;;;;;10.88;7.47;;;;;;;3.68;46.23;96940.41;5114017;28;20920;-64
2022/03/12 06:18:53;;;;;;;10.25;7.28;;;;;;;3.39;46.57;96943.00;5114354;28;20490;-64
2022/03/12 06:21:19;;;;;;;9.25;6.93;;;;;;;3.68;45.67;96943.00;5095892;28;20907;-64
2022/03/12 06:23:45;;;;;;;10.85;7.22;;;;;;;3.70;46.04;96952.22;5095505;28;20408;-64
2022/03/12 06:26:14;;;;;;;11.33;6.83;;;;;;;3.85;45.78;96951.38;5113770;28;20395;-64
2022/03/12 06:28:44;;;;;;;10.82;7.03;;;;;;;4.17;44.98;96944.03;5113862;28;20924;-64
2022/03/12 06:31:12;;;;;;;9.00;7.00;;;;;;;4.32;44.09;96945.78;5113858;28;20475;-64
2022/03/12 06:33:39;;;;;;;9.80;7.40;;;;;;;4.32;44.28;96948.38;5114051;28;20436;-64
2022/03/12 06:36:05;;;;;;;10.77;7.43;;;;;;;4.13;44.97;96963.50;5095716;28;20398;-64
2022/03/12 06:38:32;;;;;;;9.35;7.28;;;;;;;3.98;45.42;96959.34;5095187;28;20480;-64
2022/03/12 06:40:58;;;;;;;9.73;7.00;;;;;;;4.05;45.04;96960.22;5113323;28;20440;-64
2022/03/12 06:43:28;;;;;;;12.50;7.32;;;;;;;4.41;44.41;96960.22;5094922;28;20399;-64
2022/03/12 06:46:01;;;;;;;10.80;7.40;;;;;;;4.46;44.67;96963.88;5113673;28;20869;-65
2022/03/12 06:48:28;;;;;;;10.50;7.43;;;;;;;4.56;44.78;96963.59;5113686;28;20384;-64
2022/03/12 06:50:54;;;;;;;11.27;7.22;;;;;;;4.88;44.01;96962.31;5112940;28;20450;-67
2022/03/12 06:53:19;;;;;;;9.50;6.87;;;;;;;5.33;43.20;96961.06;5112838;28;20706;-64
2022/03/12 06:55:44;;;;;;;8.65;6.72;;;;;;;5.47;42.35;96957.56;5095115;28;20388;-64
2022/03/12 06:58:11;;;;;;;10.13;7.47;;;;;;;5.60;42.17;96956.84;5113311;28;20483;-64
2022/03/12 07:00:36;;;;;;;11.07;7.20;;;;;;;5.50;42.29;96951.19;5111566;28;20392;-64
2022/03/12 07:03:02;;;;;;;9.90;7.13;;;;;;;5.89;41.84;96950.66;5112740;28;20465;-65
2022/03/12 07:05:28;;;;;;;8.75;7.15;;;;;;;5.79;42.03;96961.38;5113300;28;20691;-64
2022/03/12 07:07:55;;;;;;;10.23;6.85;;;;;;;5.62;42.06;96960.06;5113518;28;20376;-63
2022/03/12 07:10:20;;;;;;;8.03;6.93;;;;;;;5.78;42.41;96964.97;5112238;28;20400;-64
2022/03/12 07:12:47;;;;;;;9.63;7.30;;;;;;;5.71;41.98;96964.94;5112978;28;20392;-63
2022/03/12 07:15:13;;;;;;;9.85;7.22;;;;;;;5.73;41.65;96962.94;5094529;28;20404;-63
2022/03/12 07:17:40;;;;;;;11.43;7.03;;;;;;;5.85;41.92;96958.00;5113499;28;20427;-63
2022/03/12 07:20:06;;;;;;;9.60;6.90;;;;;;;5.93;41.50;96962.25;5112757;28;20384;-63
2022/03/12 07:22:32;;;;;;;11.57;7.07;;;;;;;5.97;41.73;96961.69;5094308;28;20909;-63
2022/03/12 07:24:58;;;;;;;10.15;7.18;;;;;;;6.26;41.04;96958.81;5112451;28;20388;-65
2022/03/12 07:27:25;;;;;;;9.95;7.30;;;;;;;6.15;41.18;96959.38;5112298;28;20956;-64
2022/03/12 07:29:51;;;;;;;8.23;6.97;;;;;;;6.18;41.00;96966.81;5112339;28;20469;-63
2022/03/12 07:32:17;;;;;;;9.30;7.20;;;;;;;6.44;40.81;96971.28;5112228;28;20392;-63
2022/03/12 07:34:43;;;;;;;8.27;6.33;;;;;;;6.40;40.91;96967.47;5113567;28;20191;-63
2022/03/12 07:37:11;;;;;;;8.70;6.33;;;;;;;6.44;40.82;96967.88;5113439;28;20259;-63
2022/03/12 07:39:37;;;;;;;8.30;5.73;;;;;;;6.27;41.19;96977.84;5113314;28;20231;-63
2022/03/12 07:42:03;;;;;;;11.27;6.77;;;;;;;6.23;40.57;96981.81;5113356;28;20180;-63
2022/03/12 07:44:29;;;;;;;9.00;6.47;;;;;;;6.22;40.70;96975.00;5112974;28;20241;-64
2022/03/12 07:46:54;;;;;;;13.27;6.43;;;;;;;6.36;40.80;96981.06;5112241;28;20220;-64
2022/03/12 07:49:20;;;;;;;11.27;6.00;;;;;;;6.11;41.55;96980.78;5113267;28;20199;-64
2022/03/12 07:51:46;;;;;;;11.80;6.60;;;;;;;6.55;40.66;96981.13;5113445;28;20218;-64
2022/03/12 07:54:14;;;;;;;7.80;5.80;;;;;;;6.53;40.76;96984.91;5113145;28;20195;-66
2022/03/12 07:56:40;;;;;;;9.80;6.83;;;;;;;6.46;40.76;96995.34;5095357;28;20191;-67
2022/03/12 07:59:06;;;;;;;11.90;7.00;;;;;;;6.13;41.17;96987.38;5113076;28;20255;-66
2022/03/12 08:01:33;;;;;;;12.97;7.27;;;;;;;6.27;41.26;96996.06;5112757;28;20203;-65
2022/03/12 08:04:01;;;;;;;11.23;6.63;;;;;;;6.23;42.22;96987.84;5113052;28;20207;-65
2022/03/12 08:06:27;;;;;;;13.27;7.00;;;;;;;6.63;42.21;96985.38;5095051;28;20180;-65
2022/03/12 08:08:52;;;;;;;9.33;6.57;;;;;;;6.66;40.92;96985.78;5112527;28;20191;-65
2022/03/12 08:11:29;;;;;;;9.27;6.33;;;;;;;6.89;40.55;96984.63;5113268;28;20340;-65
2022/03/12 08:14:02;;;;;;;10.37;7.40;;;;;;;7.00;40.54;96991.84;5112353;28;20265;-64
2022/03/12 08:16:29;;;;;;;10.07;6.90;;;;;;;7.19;40.21;96977.22;5113229;28;20168;-64
2022/03/12 08:18:55;;;;;;;8.90;6.83;;;;;;;7.14;39.96;96988.22;5112212;28;20183;-64
2022/03/12 08:21:21;;;;;;;17.07;7.43;;;;;;;7.24;40.28;96980.84;5094449;28;20290;-65
2022/03/12 08:23:47;;;;;;;12.53;6.87;;;;;;;7.43;40.48;96984.44;5094558;28;20199;-65
2022/03/12 08:26:13;;;;;;;10.57;7.10;;;;;;;7.47;40.54;96977.81;5112753;28;20513;-65
2022/03/12 08:28:40;;;;;;;14.47;7.03;;;;;;;7.68;39.84;96985.44;5112862;28;20241;-66
2022/03/12 08:31:06;;;;;;;11.03;7.97;;;;;;;7.88;39.50;96988.78;5094199;28;20264;-65
2022/03/12 08:33:32;;;;;;;13.00;7.43;;;;;;;8.03;38.93;96987.72;5112321;28;20184;-65
2022/03/12 08:35:58;;;;;;;11.67;8.00;;;;;;;8.13;38.91;96988.13;5112809;28;20180;-65
2022/03/12 08:38:25;;;;;;;12.10;7.30;;;;;;;8.36;38.46;96988.44;5112258;28;20642;-65
2022/03/12 08:40:51;;;;;;;14.07;8.00;;;;;;;8.56;38.26;96989.19;5112379;28;20219;-65
2022/03/12 08:43:17;;;;;;;10.37;7.47;;;;;;;8.43;38.54;96984.00;5112489;28;20699;-65
2022/03/12 08:45:43;;;;;;;14.67;8.00;;;;;;;8.42;38.88;96982.41;5112749;28;20184;-65
2022/03/12 08:48:09;;;;;;;10.60;7.60;;;;;;;8.57;38.57;96982.97;5112833;28;20187;-66
2022/03/12 08:50:34;;;;;;;14.10;7.27;;;;;;;8.51;38.40;96985.59;5112473;28;20478;-65
2022/03/12 08:52:59;;;;;;;16.10;7.33;;;;;;;8.47;38.00;96987.03;5112916;28;20231;-66
2022/03/12 08:55:25;;;;;;;12.37;7.87;;;;;;;8.35;38.32;96981.66;5113088;28;20184;-65
2022/03/12 08:57:52;;;;;;;12.70;7.70;;;;;;;8.66;38.63;96978.28;5112925;28;20596;-65
2022/03/12 09:00:19;;;;;;;11.17;7.67;;;;;;;8.93;38.03;96978.91;5111439;28;20663;-65
2022/03/12 09:02:46;;;;;;;10.03;7.67;;;;;;;9.22;37.62;96980.94;5111781;28;20552;-64
2022/03/12 09:05:12;;;;;;;14.43;8.63;;;;;;;9.05;37.63;96985.88;5112804;28;20563;-65
2022/03/12 09:07:39;;;;;;;12.93;8.07;;;;;;;9.10;38.40;96985.25;5112641;28;20186;-63
2022/03/12 09:10:05;;;;;;;11.00;7.87;;;;;;;9.02;38.73;96991.53;5094269;28;20237;-65
2022/03/12 09:12:31;;;;;;;10.67;7.40;;;;;;;9.28;38.23;96997.59;5094189;28;20632;-63
2022/03/12 09:14:57;;;;;;;12.20;7.73;;;;;;;9.28;38.47;96985.31;5112950;28;20197;-65
2022/03/12 09:17:22;;;;;;;12.33;8.17;;;;;;;9.50;37.65;96988.34;5112437;28;20225;-64
2022/03/12 09:19:49;;;;;;;13.67;8.17;;;;;;;9.32;37.79;96991.72;5113481;28;20180;-63
2022/03/12 09:22:16;;;;;;;11.93;7.90;;;;;;;9.42;38.24;96989.41;5094196;28;20204;-63
2022/03/12 09:24:42;;;;;;;14.13;8.63;;;;;;;9.42;38.28;96994.63;5094910;28;20200;-64
2022/03/12 09:27:08;;;;;;;16.00;8.40;;;;;;;9.61;38.51;96995.50;5098469;28;20617;-64
2022/03/12 09:29:35;;;;;;;12.93;8.57;;;;;;;9.57;37.91;96994.34;5116558;28;20624;-64
2022/03/12 09:32:01;;;;;;;14.73;9.33;;;;;;;9.55;38.42;96998.97;5115947;28;20195;-64
2022/03/12 09:34:26;;;;;;;13.17;9.07;;;;;;;9.60;38.50;96991.28;5098008;28;20195;-70
2022/03/12 09:36:52;;;;;;;13.97;8.57;;;;;;;9.67;38.01;96999.06;5116528;28;20179;-72
2022/03/12 09:39:17;;;;;;;15.90;8.33;;;;;;;9.78;37.70;96993.94;5115993;28;20212;-69
2022/03/12 09:41:44;;;;;;;13.43;8.73;;;;;;;9.84;37.75;96994.88;5116474;28;20573;-69
2022/03/12 09:44:10;;;;;;;14.73;8.40;;;;;;;9.78;37.63;96995.75;5115808;28;20202;-72
2022/03/12 09:46:36;;;;;;;16.13;9.20;;;;;;;9.66;37.68;96990.41;5098160;28;20179;-68
2022/03/12 09:49:03;;;;;;;16.50;8.67;;;;;;;9.42;38.23;96986.78;5111840;28;20211;-69
2022/03/12 09:51:31;;;;;;;15.30;9.00;;;;;;;9.56;38.34;96983.06;5106741;28;20176;-69
2022/03/12 09:53:57;;;;;;;17.30;8.70;;;;;;;9.71;38.62;96981.91;5115773;28;20187;-69
2022/03/12 09:56:23;;;;;;;18.07;8.90;;;;;;;9.93;37.92;96986.53;5097674;28;20211;-68
2022/03/12 09:58:49;;;;;;;14.93;8.47;;;;;;;9.94;38.25;96984.72;5115322;28;20214;-68
2022/03/12 10:01:15;;;;;;;13.70;9.67;;;;;;;10.18;37.72;96983.09;5114085;28;20176;-69
2022/03/12 10:03:42;;;;;;;18.07;9.67;;;;;;;9.99;37.75;96979.63;5115158;28;20540;-70
2022/03/12 10:06:07;;;;;;;16.27;9.13;;;;;;;9.94;37.84;96977.66;5115488;28;20175;-69
2022/03/12 10:08:33;;;;;;;12.73;9.23;;;;;;;9.59;39.20;96976.59;5114204;28;20701;-69
2022/03/12 10:10:59;;;;;;;13.60;9.33;;;;;;;9.81;38.52;96975.16;5115272;28;20191;-69
2022/03/12 10:13:24;;;;;;;16.57;9.10;;;;;;;10.07;38.41;96968.88;5115203;28;20192;-67
2022/03/12 10:15:51;;;;;;;15.73;9.20;;;;;;;10.20;38.41;96965.31;5115206;28;20675;-67
2022/03/12 10:18:16;;;;;;;20.03;9.97;;;;;;;10.28;37.99;96968.44;5114595;28;20180;-67
2022/03/12 10:20:42;;;;;;;15.77;10.43;;;;;;;10.50;38.09;96968.78;5115081;28;20232;-69
2022/03/12 10:23:08;;;;;;;14.03;9.20;;;;;;;10.54;37.99;96958.66;5096901;28;20196;-69
2022/03/12 10:25:34;;;;;;;15.27;9.70;;;;;;;10.56;37.78;96967.09;5115631;28;20190;-68
2022/03/12 10:28:00;;;;;;;15.33;9.17;;;;;;;10.35;37.77;96960.50;5095779;28;20619;-69
2022/03/12 10:30:25;;;;;;;15.43;8.97;;;;;;;9.88;38.59;96962.00;5114764;28;20245;-69
2022/03/12 10:32:51;;;;;;;13.07;9.30;;;;;;;10.31;38.08;96959.34;5114645;28;20188;-68
2022/03/12 10:35:21;;;;;;;12.23;8.73;;;;;;;10.08;39.16;96957.38;5114909;28;20180;-68
2022/03/12 10:37:51;;;;;;;16.17;9.30;;;;;;;10.05;39.05;96942.09;5113755;28;20511;-68
2022/03/12 10:40:35;;;;;;;14.90;9.27;;;;;;;10.19;38.68;96955.88;5096187;28;20752;-68
2022/03/12 10:43:07;;;;;;;18.23;10.40;;;;;;;10.10;38.93;96941.44;5109237;28;20205;-68
2022/03/12 10:45:55;;;;;;;15.20;9.23;;;;;;;10.05;39.07;96949.16;5091322;28;20176;-69
2022/03/12 10:48:21;;;;;;;15.67;9.20;;;;;;;10.32;38.79;96938.16;5113820;28;20180;-68
2022/03/12 10:50:50;;;;;;;17.23;10.17;;;;;;;10.51;38.34;96938.94;5113781;28;20221;-68
2022/03/12 10:53:17;;;;;;;13.37;9.60;;;;;;;10.54;38.51;96938.47;5114227;28;20184;-67
2022/03/12 10:55:45;;;;;;;15.53;9.73;;;;;;;10.65;38.45;96934.31;5113337;28;20187;-70
2022/03/12 10:58:12;;;;;;;13.37;9.60;;;;;;;10.65;39.01;96936.91;5114406;28;20206;-69
2022/03/12 11:00:38;;;;;;;13.07;9.80;;;;;;;11.01;38.39;96934.19;5096173;28;20179;-68
2022/03/12 11:03:11;;;;;;;15.40;10.00;;;;;;;10.73;38.90;96934.00;5113832;28;20219;-69
2022/03/12 11:05:37;;;;;;;16.53;10.33;;;;;;;10.61;39.68;96930.53;5114076;28;20188;-68
2022/03/12 11:08:06;;;;;;;15.03;9.73;;;;;;;10.83;39.88;96937.69;5114001;28;20601;-68
2022/03/12 11:10:33;;;;;;;14.17;9.47;;;;;;;10.75;39.91;96924.91;5114109;28;20200;-69
2022/03/12 11:12:59;;;;;;;15.60;9.30;;;;;;;10.78;39.60;96927.06;5113307;28;20247;-68
2022/03/12 11:15:24;;;;;;;16.73;10.20;;;;;;;10.83;39.56;96921.13;5113945;28;20219;-68
2022/03/12 11:17:51;;;;;;;13.27;9.70;;;;;;;11.05;39.48;96934.53;5095749;28;20245;-69
2022/03/12 11:20:27;;;;;;;13.07;9.27;;;;;;;10.89;39.60;96932.56;5113587;28;20263;-68
2022/03/12 11:23:13;;;;;;;15.10;10.47;;;;;;;10.92;39.35;96929.50;5113668;28;20221;-69
2022/03/12 11:25:56;;;;;;;16.80;9.57;;;;;;;10.88;39.35;96923.88;5100549;28;20566;-71
2022/03/12 11:28:23;;;;;;;15.37;10.20;;;;;;;11.14;39.45;96915.63;5108429;28;20219;-69
2022/03/12 11:30:48;;;;;;;12.40;8.90;;;;;;;11.29;41.67;96914.38;5113572;28;20249;-70
2022/03/12 11:33:14;;;;;;;14.77;9.63;;;;;;;11.25;41.12;96914.84;5113004;28;20275;-70